createdAt,value
2017-12-31T00:00:34.873Z,9.26
2017-12-31T00:01:35.166Z,9.31
2017-12-31T00:02:35.198Z,9.36
2017-12-31T00:03:35.186Z,9.14
2017-12-31T00:04:35.208Z,9.17
2017-12-31T00:05:34.735Z,9.13
2017-12-31T00:06:49.919Z,9.1
2017-12-31T00:07:35.007Z,9.14
2017-12-31T00:08:35.267Z,9.13
2017-12-31T00:09:35.041Z,8.99
2017-12-31T00:10:35.129Z,8.95
2017-12-31T00:11:35.351Z,8.94
2017-12-31T00:12:35.120Z,8.96
2017-12-31T00:13:35.107Z,8.94
2017-12-31T00:14:50.065Z,8.98
2017-12-31T00:15:35.141Z,8.92
2017-12-31T00:16:35.435Z,8.89
2017-12-31T00:17:35.215Z,8.95
2017-12-31T00:18:35.449Z,8.95
2017-12-31T00:19:35.240Z,8.98
2017-12-31T00:20:35.508Z,8.89
2017-12-31T00:21:35.564Z,8.91
2017-12-31T00:23:50.243Z,8.91
2017-12-31T00:24:35.602Z,9.04
2017-12-31T00:25:35.616Z,8.98
2017-12-31T00:26:35.588Z,8.96
2017-12-31T00:27:35.364Z,8.94
2017-12-31T00:28:35.381Z,8.94
2017-12-31T00:29:35.426Z,8.96
2017-12-31T00:30:35.680Z,8.96
2017-12-31T00:31:35.711Z,9.01
2017-12-31T00:32:35.700Z,9.05
2017-12-31T00:33:35.764Z,9.02
2017-12-31T00:34:35.775Z,8.99
2017-12-31T00:35:35.529Z,8.98
2017-12-31T00:36:35.777Z,9.04
2017-12-31T00:37:50.225Z,9.29
2017-12-31T00:38:35.852Z,9.15
2017-12-31T00:39:35.854Z,9.02
2017-12-31T00:40:35.858Z,9.15
2017-12-31T00:41:35.881Z,9.05
2017-12-31T00:42:35.906Z,9.1
2017-12-31T00:43:35.652Z,9.04
2017-12-31T00:44:35.936Z,9.05
2017-12-31T00:45:35.960Z,9.04
2017-12-31T00:46:35.458Z,8.98
2017-12-31T00:47:35.989Z,9.05
2017-12-31T00:48:36.135Z,9.1
2017-12-31T00:49:36.009Z,9.11
2017-12-31T00:50:36.036Z,9.15
2017-12-31T00:51:35.801Z,9.14
2017-12-31T00:52:50.747Z,9.08
2017-12-31T00:53:35.885Z,9.08
2017-12-31T00:55:36.192Z,9.13
2017-12-31T00:56:35.887Z,9.11
2017-12-31T00:57:36.150Z,9.02
2017-12-31T00:58:36.190Z,9.08
2017-12-31T01:00:36.208Z,9.17
2017-12-31T01:01:50.919Z,9.11
2017-12-31T01:02:36.276Z,9.08
2017-12-31T01:03:36.303Z,9.13
2017-12-31T01:04:36.301Z,9.08
2017-12-31T01:05:36.324Z,9.1
2017-12-31T01:07:36.326Z,9.05
2017-12-31T01:08:36.110Z,8.87
2017-12-31T01:09:51.054Z,8.96
2017-12-31T01:10:36.161Z,9.01
2017-12-31T01:11:36.409Z,9.08
2017-12-31T01:12:51.130Z,9.04
2017-12-31T01:13:36.447Z,9.01
2017-12-31T01:14:36.479Z,9.1
2017-12-31T01:15:36.232Z,8.94
2017-12-31T01:16:36.500Z,8.92
2017-12-31T01:17:51.194Z,8.95
2017-12-31T01:18:36.567Z,9.04
2017-12-31T01:19:36.345Z,8.95
2017-12-31T01:20:36.344Z,9.05
2017-12-31T01:21:36.340Z,9.1
2017-12-31T01:22:51.277Z,9.05
2017-12-31T01:23:36.385Z,8.99
2017-12-31T01:24:36.389Z,8.89
2017-12-31T01:25:51.335Z,8.92
2017-12-31T01:26:36.684Z,8.91
2017-12-31T01:27:36.450Z,8.96
2017-12-31T01:28:36.486Z,8.95
2017-12-31T01:29:36.748Z,8.86
2017-12-31T01:30:36.532Z,8.86
2017-12-31T01:31:36.769Z,8.84
2017-12-31T01:32:36.556Z,8.94
2017-12-31T01:33:36.849Z,8.87
2017-12-31T01:34:36.824Z,8.87
2017-12-31T01:35:36.837Z,8.87
2017-12-31T01:36:36.626Z,8.89
2017-12-31T01:37:36.887Z,8.81
2017-12-31T01:38:36.917Z,8.76
2017-12-31T01:39:36.670Z,8.73
2017-12-31T01:40:36.707Z,8.74
2017-12-31T01:42:36.984Z,8.83
2017-12-31T01:43:51.420Z,8.73
2017-12-31T01:44:37.019Z,8.71
2017-12-31T01:45:37.037Z,8.61
2017-12-31T01:46:36.820Z,8.61
2017-12-31T01:47:37.056Z,8.59
2017-12-31T01:48:37.111Z,8.68
2017-12-31T01:49:36.862Z,8.58
2017-12-31T01:50:37.131Z,8.59
2017-12-31T01:51:37.146Z,8.56
2017-12-31T01:52:37.164Z,8.63
2017-12-31T01:53:36.919Z,8.59
2017-12-31T01:54:36.930Z,8.59
2017-12-31T01:56:36.963Z,8.55
2017-12-31T01:57:51.658Z,8.47
2017-12-31T01:58:37.265Z,8.5
2017-12-31T01:59:37.041Z,8.55
2017-12-31T02:00:37.283Z,8.52
2017-12-31T02:01:37.312Z,8.59
2017-12-31T02:02:37.064Z,8.61
2017-12-31T02:03:37.092Z,8.45
2017-12-31T02:04:37.111Z,8.55
2017-12-31T02:05:37.386Z,8.55
2017-12-31T02:06:37.413Z,8.55
2017-12-31T02:08:36.937Z,8.52
2017-12-31T02:09:51.886Z,8.43
2017-12-31T02:10:37.211Z,8.44
2017-12-31T02:11:37.279Z,8.44
2017-12-31T02:12:52.197Z,8.45
2017-12-31T02:13:37.277Z,8.45
2017-12-31T02:14:37.541Z,8.45
2017-12-31T02:15:37.560Z,8.41
2017-12-31T02:16:37.321Z,8.38
2017-12-31T02:17:37.358Z,8.41
2017-12-31T02:18:37.628Z,8.34
2017-12-31T02:19:37.623Z,8.33
2017-12-31T02:20:37.668Z,8.34
2017-12-31T02:21:37.666Z,8.25
2017-12-31T02:22:37.701Z,8.38
2017-12-31T02:23:37.701Z,8.33
2017-12-31T02:24:37.732Z,8.38
2017-12-31T02:25:37.746Z,8.34
2017-12-31T02:26:37.519Z,8.23
2017-12-31T02:27:37.830Z,8.25
2017-12-31T02:29:37.824Z,8.29
2017-12-31T02:30:37.822Z,8.4
2017-12-31T02:32:37.907Z,8.41
2017-12-31T02:33:37.656Z,8.45
2017-12-31T02:34:37.639Z,8.45
2017-12-31T02:36:37.926Z,8.41
2017-12-31T02:37:37.982Z,8.44
2017-12-31T02:38:37.978Z,8.47
2017-12-31T02:39:38.027Z,8.4
2017-12-31T02:40:38.003Z,8.36
2017-12-31T02:41:38.037Z,8.33
2017-12-31T02:42:38.059Z,8.36
2017-12-31T02:43:38.096Z,8.3
2017-12-31T02:44:52.755Z,8.29
2017-12-31T02:45:38.086Z,8.36
2017-12-31T02:46:38.125Z,8.37
2017-12-31T02:47:38.129Z,8.34
2017-12-31T02:48:37.898Z,8.29
2017-12-31T02:49:37.931Z,8.29
2017-12-31T02:51:37.964Z,8.15
2017-12-31T02:52:38.231Z,8.2
2017-12-31T02:54:38.254Z,8.23
2017-12-31T02:55:38.273Z,8.22
2017-12-31T02:56:38.036Z,8.25
2017-12-31T02:57:38.324Z,8.22
2017-12-31T02:58:38.119Z,8.15
2017-12-31T02:59:38.338Z,8.16
2017-12-31T03:01:38.429Z,8.12
2017-12-31T03:02:38.413Z,8.07
2017-12-31T03:03:38.197Z,8.01
2017-12-31T03:04:38.460Z,8
2017-12-31T03:05:38.202Z,8.02
2017-12-31T03:06:38.466Z,7.97
2017-12-31T03:07:38.506Z,8.02
2017-12-31T03:08:38.516Z,7.95
2017-12-31T03:10:52.966Z,7.85
2017-12-31T03:11:38.046Z,7.83
2017-12-31T03:12:38.584Z,7.9
2017-12-31T03:13:38.335Z,7.9
2017-12-31T03:14:38.616Z,7.82
2017-12-31T03:15:53.308Z,7.86
2017-12-31T03:16:53.338Z,7.77
2017-12-31T03:17:38.413Z,7.79
2017-12-31T03:18:38.674Z,7.77
2017-12-31T03:19:38.447Z,7.77
2017-12-31T03:20:38.709Z,7.8
2017-12-31T03:21:38.737Z,7.75
2017-12-31T03:22:38.777Z,7.72
2017-12-31T03:24:38.777Z,7.69
2017-12-31T03:25:53.227Z,7.58
2017-12-31T03:26:38.810Z,7.67
2017-12-31T03:27:38.853Z,7.64
2017-12-31T03:28:38.616Z,7.63
2017-12-31T03:29:53.542Z,7.63
2017-12-31T03:30:53.576Z,7.72
2017-12-31T03:31:38.654Z,7.58
2017-12-31T03:32:53.622Z,7.6
2017-12-31T03:33:38.987Z,7.55
2017-12-31T03:35:38.973Z,7.63
2017-12-31T03:36:38.985Z,7.74
2017-12-31T03:37:39.004Z,7.68
2017-12-31T03:38:39.059Z,7.68
2017-12-31T03:39:38.792Z,7.68
2017-12-31T03:40:38.557Z,7.64
2017-12-31T03:41:39.072Z,7.64
2017-12-31T03:42:39.115Z,7.53
2017-12-31T03:43:39.110Z,7.58
2017-12-31T03:44:39.124Z,7.61
2017-12-31T03:45:39.167Z,7.53
2017-12-31T03:46:38.655Z,7.61
2017-12-31T03:47:53.854Z,7.5
2017-12-31T03:48:39.199Z,7.67
2017-12-31T03:49:38.963Z,7.55
2017-12-31T03:50:39.001Z,7.79
2017-12-31T03:51:39.255Z,7.6
2017-12-31T03:52:39.266Z,7.57
2017-12-31T03:53:39.304Z,7.61
2017-12-31T03:54:39.310Z,7.71
2017-12-31T03:55:39.361Z,7.67
2017-12-31T03:57:39.394Z,7.68
2017-12-31T03:58:39.117Z,7.6
2017-12-31T03:59:39.404Z,7.57
2017-12-31T04:00:39.413Z,7.63
2017-12-31T04:01:54.104Z,7.5
2017-12-31T04:02:39.191Z,7.63
2017-12-31T04:03:39.478Z,7.64
2017-12-31T04:04:39.512Z,7.68
2017-12-31T04:05:39.494Z,7.58
2017-12-31T04:06:39.504Z,7.61
2017-12-31T04:07:39.535Z,7.69
2017-12-31T04:08:39.066Z,7.67
2017-12-31T04:09:53.988Z,7.63
2017-12-31T04:10:39.337Z,7.57
2017-12-31T04:11:39.611Z,7.68
2017-12-31T04:12:39.638Z,7.64
2017-12-31T04:13:39.632Z,7.64
2017-12-31T04:14:39.657Z,7.5
2017-12-31T04:15:39.686Z,7.48
2017-12-31T04:16:39.705Z,7.64
2017-12-31T04:17:39.722Z,7.49
2017-12-31T04:18:39.728Z,7.5
2017-12-31T04:19:54.412Z,7.48
2017-12-31T04:20:39.769Z,7.45
2017-12-31T04:21:39.767Z,7.48
2017-12-31T04:22:39.562Z,7.49
2017-12-31T04:23:39.552Z,7.53
2017-12-31T04:24:39.841Z,7.58
2017-12-31T04:25:39.590Z,7.6
2017-12-31T04:26:39.883Z,7.57
2017-12-31T04:27:39.640Z,7.61
2017-12-31T04:28:39.897Z,7.57
2017-12-31T04:29:39.670Z,7.5
2017-12-31T04:30:39.683Z,7.55
2017-12-31T04:31:39.964Z,7.55
2017-12-31T04:32:39.963Z,7.64
2017-12-31T04:33:40.004Z,7.61
2017-12-31T04:34:40.020Z,7.53
2017-12-31T04:35:54.696Z,7.57
2017-12-31T04:36:54.737Z,7.53
2017-12-31T04:37:40.049Z,7.49
2017-12-31T04:38:39.831Z,7.63
2017-12-31T04:39:40.087Z,7.49
2017-12-31T04:40:40.113Z,7.5
2017-12-31T04:41:40.141Z,7.35
2017-12-31T04:42:40.149Z,7.53
2017-12-31T04:43:54.590Z,7.42
2017-12-31T04:44:40.185Z,7.52
2017-12-31T04:45:54.864Z,7.42
2017-12-31T04:46:40.221Z,7.4
2017-12-31T04:47:40.238Z,7.4
2017-12-31T04:48:40.019Z,7.45
2017-12-31T04:49:40.279Z,7.43
2017-12-31T04:50:40.312Z,7.39
2017-12-31T04:51:54.963Z,7.4
2017-12-31T04:52:40.338Z,7.48
2017-12-31T04:53:40.343Z,7.37
2017-12-31T04:54:40.380Z,7.42
2017-12-31T04:55:40.359Z,7.42
2017-12-31T04:56:40.396Z,7.39
2017-12-31T04:57:40.417Z,7.35
2017-12-31T04:58:55.111Z,7.39
2017-12-31T04:59:40.177Z,7.34
2017-12-31T05:00:40.477Z,7.34
2017-12-31T05:01:40.470Z,7.35
2017-12-31T05:03:40.521Z,7.25
2017-12-31T05:04:40.302Z,7.15
2017-12-31T05:05:40.528Z,7.13
2017-12-31T05:06:40.570Z,7.1
2017-12-31T05:07:55.262Z,6.98
2017-12-31T05:08:40.585Z,7.21
2017-12-31T05:09:40.611Z,6.97
2017-12-31T05:10:40.616Z,7.02
2017-12-31T05:11:40.657Z,6.97
2017-12-31T05:12:40.401Z,6.98
2017-12-31T05:13:40.692Z,6.94
2017-12-31T05:14:40.685Z,6.88
2017-12-31T05:15:40.469Z,6.98
2017-12-31T05:16:40.741Z,6.97
2017-12-31T05:17:40.777Z,6.94
2017-12-31T05:18:40.764Z,6.97
2017-12-31T05:19:40.822Z,6.97
2017-12-31T05:20:40.539Z,6.97
2017-12-31T05:22:55.518Z,6.95
2017-12-31T05:23:40.868Z,7.1
2017-12-31T05:24:40.885Z,6.99
2017-12-31T05:25:40.902Z,7.02
2017-12-31T05:26:40.902Z,6.99
2017-12-31T05:27:40.917Z,7.06
2017-12-31T05:28:40.944Z,7.06
2017-12-31T05:29:40.986Z,7.16
2017-12-31T05:31:41.009Z,7.16
2017-12-31T05:32:41.017Z,7.16
2017-12-31T05:33:41.018Z,7.17
2017-12-31T05:34:40.786Z,7.06
2017-12-31T05:35:41.054Z,6.97
2017-12-31T05:36:41.096Z,6.98
2017-12-31T05:37:41.106Z,6.95
2017-12-31T05:39:40.888Z,6.94
2017-12-31T05:40:40.914Z,6.88
2017-12-31T05:41:41.158Z,6.84
2017-12-31T05:42:41.183Z,6.81
2017-12-31T05:43:40.949Z,6.77
2017-12-31T05:44:41.243Z,6.8
2017-12-31T05:45:41.241Z,6.77
2017-12-31T05:46:41.280Z,6.7
2017-12-31T05:47:41.285Z,6.7
2017-12-31T05:48:41.273Z,6.67
2017-12-31T05:49:41.306Z,6.67
2017-12-31T05:50:41.312Z,6.55
2017-12-31T05:51:56.037Z,6.59
2017-12-31T05:52:41.366Z,6.64
2017-12-31T05:53:41.410Z,6.52
2017-12-31T05:54:56.051Z,6.55
2017-12-31T05:55:40.897Z,6.52
2017-12-31T05:58:41.217Z,6.56
2017-12-31T05:59:41.223Z,6.59
2017-12-31T06:00:41.502Z,6.51
2017-12-31T06:01:41.303Z,6.37
2017-12-31T06:02:41.265Z,6.55
2017-12-31T06:03:41.533Z,6.58
2017-12-31T06:04:41.552Z,6.58
2017-12-31T06:05:41.588Z,6.62
2017-12-31T06:06:41.349Z,6.59
2017-12-31T06:07:41.392Z,6.71
2017-12-31T06:08:41.643Z,6.76
2017-12-31T06:09:41.666Z,6.76
2017-12-31T06:10:56.351Z,6.73
2017-12-31T06:11:41.413Z,6.73
2017-12-31T06:12:41.460Z,6.81
2017-12-31T06:13:41.461Z,6.88
2017-12-31T06:14:41.491Z,6.79
2017-12-31T06:16:41.876Z,6.92
2017-12-31T06:17:41.792Z,6.89
2017-12-31T06:18:41.809Z,6.95
2017-12-31T06:19:41.835Z,7.02
2017-12-31T06:20:41.316Z,6.94
2017-12-31T06:21:41.341Z,6.92
2017-12-31T06:22:41.629Z,6.98
2017-12-31T06:23:41.634Z,6.97
2017-12-31T06:24:41.917Z,6.98
2017-12-31T06:25:56.585Z,6.81
2017-12-31T06:26:56.610Z,6.8
2017-12-31T06:27:41.958Z,6.81
2017-12-31T06:28:41.729Z,6.74
2017-12-31T06:29:41.734Z,6.76
2017-12-31T06:30:41.749Z,6.71
2017-12-31T06:31:42.022Z,6.73
2017-12-31T06:32:41.799Z,6.71
2017-12-31T06:33:42.063Z,6.7
2017-12-31T06:34:41.839Z,6.62
2017-12-31T06:35:41.845Z,6.58
2017-12-31T06:36:42.098Z,6.64
2017-12-31T06:37:41.897Z,6.55
2017-12-31T06:38:42.137Z,6.55
2017-12-31T06:39:41.899Z,6.54
2017-12-31T06:40:42.195Z,6.54
2017-12-31T06:41:41.936Z,6.51
2017-12-31T06:43:42.243Z,6.59
2017-12-31T06:44:42.017Z,6.55
2017-12-31T06:45:42.292Z,6.48
2017-12-31T06:46:42.029Z,6.41
2017-12-31T06:47:42.287Z,6.44
2017-12-31T06:48:42.304Z,6.38
2017-12-31T06:49:42.342Z,6.41
2017-12-31T06:50:56.765Z,6.36
2017-12-31T06:51:42.140Z,6.3
2017-12-31T06:52:42.140Z,6.27
2017-12-31T06:53:42.415Z,6.27
2017-12-31T06:54:42.436Z,6.21
2017-12-31T06:55:42.198Z,6.09
2017-12-31T06:56:42.465Z,6.17
2017-12-31T06:57:57.137Z,6.18
2017-12-31T06:58:42.481Z,6.06
2017-12-31T06:59:42.546Z,6.09
2017-12-31T07:00:42.524Z,6.09
2017-12-31T07:01:42.554Z,6.14
2017-12-31T07:02:42.552Z,6.06
2017-12-31T07:03:42.329Z,6.14
2017-12-31T07:04:42.334Z,6.12
2017-12-31T07:05:42.622Z,6.08
2017-12-31T07:06:42.629Z,6.11
2017-12-31T07:07:42.632Z,6.25
2017-12-31T07:08:42.400Z,6.18
2017-12-31T07:09:42.695Z,6.27
2017-12-31T07:10:42.190Z,6.28
2017-12-31T07:11:42.707Z,6.25
2017-12-31T07:12:42.499Z,6.34
2017-12-31T07:13:42.740Z,6.41
2017-12-31T07:14:42.771Z,6.43
2017-12-31T07:15:42.799Z,6.4
2017-12-31T07:16:42.559Z,6.54
2017-12-31T07:17:42.816Z,6.49
2017-12-31T07:18:42.580Z,6.52
2017-12-31T07:19:42.906Z,6.52
2017-12-31T07:20:57.557Z,6.52
2017-12-31T07:21:42.911Z,6.61
2017-12-31T07:22:42.915Z,6.59
2017-12-31T07:23:42.661Z,6.62
2017-12-31T07:24:42.686Z,6.61
2017-12-31T07:25:42.689Z,6.67
2017-12-31T07:26:42.974Z,6.67
2017-12-31T07:27:42.735Z,6.56
2017-12-31T07:28:42.776Z,6.66
2017-12-31T07:29:57.695Z,6.55
2017-12-31T07:30:42.773Z,6.58
2017-12-31T07:31:43.067Z,6.67
2017-12-31T07:33:43.120Z,6.67
2017-12-31T07:35:42.872Z,6.7
2017-12-31T07:36:42.892Z,6.71
2017-12-31T07:37:43.167Z,6.69
2017-12-31T07:39:43.193Z,6.67
2017-12-31T07:41:43.207Z,6.67
2017-12-31T07:42:42.722Z,6.74
2017-12-31T07:43:42.991Z,6.79
2017-12-31T07:44:43.284Z,6.79
2017-12-31T07:45:57.965Z,6.87
2017-12-31T07:46:43.299Z,6.76
2017-12-31T07:47:43.317Z,6.67
2017-12-31T07:48:43.082Z,6.71
2017-12-31T07:49:43.095Z,6.88
2017-12-31T07:50:43.125Z,6.77
2017-12-31T07:51:58.062Z,6.87
2017-12-31T07:53:43.174Z,6.77
2017-12-31T07:54:43.196Z,6.85
2017-12-31T07:55:57.890Z,6.81
2017-12-31T07:56:42.979Z,6.94
2017-12-31T07:57:43.233Z,6.81
2017-12-31T07:58:58.204Z,6.98
2017-12-31T07:59:43.300Z,6.92
2017-12-31T08:00:43.534Z,6.97
2017-12-31T08:01:57.990Z,6.98
2017-12-31T08:02:43.637Z,6.94
2017-12-31T08:03:43.341Z,6.94
2017-12-31T08:04:43.389Z,7.1
2017-12-31T08:05:43.624Z,7.15
2017-12-31T08:06:43.637Z,7.16
2017-12-31T08:07:43.681Z,7.16
2017-12-31T08:08:43.683Z,7.27
2017-12-31T08:09:43.711Z,7.24
2017-12-31T08:10:43.227Z,7.24
2017-12-31T08:11:43.750Z,7.42
2017-12-31T08:12:43.769Z,7.39
2017-12-31T08:14:43.792Z,7.32
2017-12-31T08:15:43.545Z,7.39
2017-12-31T08:16:43.805Z,7.48
2017-12-31T08:17:58.523Z,7.45
2017-12-31T08:18:43.864Z,7.5
2017-12-31T08:19:43.862Z,7.52
2017-12-31T08:20:58.583Z,7.63
2017-12-31T08:21:43.414Z,7.64
2017-12-31T08:22:43.983Z,7.53
2017-12-31T08:23:43.686Z,7.64
2017-12-31T08:24:43.970Z,7.53
2017-12-31T08:25:43.734Z,7.67
2017-12-31T08:27:44.024Z,7.61
2017-12-31T08:28:43.772Z,7.6
2017-12-31T08:29:44.072Z,7.68
2017-12-31T08:31:43.595Z,7.69
2017-12-31T08:33:58.792Z,7.82
2017-12-31T08:34:44.116Z,7.82
2017-12-31T08:35:44.149Z,7.75
2017-12-31T08:36:43.941Z,7.89
2017-12-31T08:37:44.181Z,7.82
2017-12-31T08:38:43.948Z,7.86
2017-12-31T08:39:43.979Z,7.93
2017-12-31T08:40:44.279Z,8
2017-12-31T08:41:58.933Z,7.92
2017-12-31T08:42:44.279Z,8
2017-12-31T08:43:44.312Z,8.02
2017-12-31T08:44:44.325Z,8.02
2017-12-31T08:45:44.324Z,8.02
2017-12-31T08:46:44.335Z,8.1
2017-12-31T08:47:44.107Z,8.16
2017-12-31T08:48:44.383Z,8.2
2017-12-31T08:49:44.390Z,8.2
2017-12-31T08:50:44.192Z,8.33
2017-12-31T08:51:44.451Z,8.2
2017-12-31T08:52:44.442Z,8.23
2017-12-31T08:53:44.224Z,8.28
2017-12-31T08:54:58.924Z,8.33
2017-12-31T08:55:44.257Z,8.3
2017-12-31T08:56:44.268Z,8.44
2017-12-31T08:57:44.299Z,8.45
2017-12-31T08:58:44.574Z,8.38
2017-12-31T09:00:44.334Z,8.38
2017-12-31T09:01:44.641Z,8.33
2017-12-31T09:02:44.626Z,8.38
2017-12-31T09:03:44.656Z,8.43
2017-12-31T09:04:59.339Z,8.47
2017-12-31T09:05:44.671Z,8.47
2017-12-31T09:06:44.740Z,8.52
2017-12-31T09:07:44.469Z,8.4
2017-12-31T09:08:44.751Z,8.53
2017-12-31T09:09:44.503Z,8.53
2017-12-31T09:10:44.781Z,8.52
2017-12-31T09:11:44.779Z,8.68
2017-12-31T09:12:44.546Z,8.74
2017-12-31T09:14:44.610Z,8.74
2017-12-31T09:15:44.874Z,8.68
2017-12-31T09:16:44.874Z,8.79
2017-12-31T09:17:44.643Z,8.74
2017-12-31T09:18:44.947Z,8.7
2017-12-31T09:19:44.947Z,8.81
2017-12-31T09:20:59.373Z,8.74
2017-12-31T09:21:44.719Z,8.74
2017-12-31T09:22:44.577Z,8.76
2017-12-31T09:23:44.739Z,8.8
2017-12-31T09:24:59.711Z,8.74
2017-12-31T09:25:45.047Z,8.74
2017-12-31T09:26:44.811Z,8.79
2017-12-31T09:27:44.574Z,8.76
2017-12-31T09:28:44.603Z,8.81
2017-12-31T09:29:45.108Z,8.84
2017-12-31T09:30:44.878Z,8.79
2017-12-31T09:31:45.143Z,8.76
2017-12-31T09:32:45.179Z,8.62
2017-12-31T09:33:44.928Z,8.73
2017-12-31T09:34:45.208Z,8.76
2017-12-31T09:35:44.969Z,8.86
2017-12-31T09:36:59.934Z,8.73
2017-12-31T09:37:45.269Z,8.71
2017-12-31T09:38:45.052Z,8.74
2017-12-31T09:39:45.294Z,8.77
2017-12-31T09:40:45.080Z,8.7
2017-12-31T09:41:45.083Z,8.7
2017-12-31T09:42:45.100Z,8.77
2017-12-31T09:43:45.364Z,8.66
2017-12-31T09:44:45.401Z,8.65
2017-12-31T09:45:45.165Z,8.74
2017-12-31T09:46:45.177Z,8.7
2017-12-31T09:47:45.423Z,8.66
2017-12-31T09:48:45.464Z,8.66
2017-12-31T09:49:45.461Z,8.68
2017-12-31T09:50:45.506Z,8.66
2017-12-31T09:51:45.523Z,8.61
2017-12-31T09:53:00.199Z,8.62
2017-12-31T09:53:45.556Z,8.76
2017-12-31T09:54:45.312Z,8.68
2017-12-31T09:55:45.325Z,8.68
2017-12-31T09:56:45.597Z,8.76
2017-12-31T09:57:45.602Z,8.74
2017-12-31T09:58:45.379Z,8.73
2017-12-31T09:59:45.405Z,8.65
2017-12-31T10:00:45.766Z,8.74
2017-12-31T10:01:45.185Z,8.79
2017-12-31T10:02:45.447Z,8.8
2017-12-31T10:03:45.739Z,8.89
2017-12-31T10:04:45.512Z,8.86
2017-12-31T10:05:45.784Z,8.81
2017-12-31T10:06:45.541Z,8.79
2017-12-31T10:08:00.471Z,8.73
2017-12-31T10:09:45.819Z,8.83
2017-12-31T10:10:45.893Z,8.81
2017-12-31T10:11:45.901Z,8.74
2017-12-31T10:12:45.901Z,8.86
2017-12-31T10:13:45.917Z,8.8
2017-12-31T10:14:45.681Z,8.81
2017-12-31T10:16:00.360Z,8.89
2017-12-31T10:16:45.952Z,8.8
2017-12-31T10:17:46.009Z,8.81
2017-12-31T10:18:45.991Z,8.84
2017-12-31T10:19:46.015Z,8.89
2017-12-31T10:20:46.016Z,8.91
2017-12-31T10:21:45.550Z,8.89
2017-12-31T10:22:46.067Z,8.96
2017-12-31T10:23:46.074Z,8.98
2017-12-31T10:24:46.109Z,8.98
2017-12-31T10:25:46.115Z,8.95
2017-12-31T10:26:46.131Z,8.98
2017-12-31T10:27:45.899Z,8.99
2017-12-31T10:28:46.203Z,8.98
2017-12-31T10:30:00.632Z,8.98
2017-12-31T10:30:45.738Z,8.95
2017-12-31T10:31:46.242Z,9.04
2017-12-31T10:32:46.023Z,8.94
2017-12-31T10:33:46.006Z,9.02
2017-12-31T10:34:46.304Z,9.1
2017-12-31T10:35:46.299Z,9.08
2017-12-31T10:36:46.081Z,9.01
2017-12-31T10:37:45.834Z,9.04
2017-12-31T10:38:46.369Z,9.13
2017-12-31T10:40:00.804Z,9.1
2017-12-31T10:40:46.158Z,9.08
2017-12-31T10:41:46.175Z,9.08
2017-12-31T10:42:46.448Z,9.15
2017-12-31T10:43:46.192Z,9.14
2017-12-31T10:44:46.221Z,9.14
2017-12-31T10:45:46.488Z,9.13
2017-12-31T10:47:46.266Z,9.15
2017-12-31T10:48:46.551Z,9.31
2017-12-31T10:49:46.577Z,9.33
2017-12-31T10:50:46.576Z,9.36
2017-12-31T10:51:46.615Z,9.24
2017-12-31T10:52:46.700Z,9.28
2017-12-31T10:53:46.662Z,9.31
2017-12-31T10:54:46.408Z,9.28
2017-12-31T10:56:01.340Z,9.36
2017-12-31T10:58:46.486Z,9.43
2017-12-31T10:59:46.489Z,9.35
2017-12-31T11:01:01.183Z,9.46
2017-12-31T11:01:46.764Z,9.36
2017-12-31T11:02:46.894Z,9.39
2017-12-31T11:03:46.828Z,9.46
2017-12-31T11:04:46.834Z,9.36
2017-12-31T11:05:46.851Z,9.43
2017-12-31T11:06:46.879Z,9.39
2017-12-31T11:08:46.896Z,9.38
2017-12-31T11:09:46.913Z,9.43
2017-12-31T11:10:47.010Z,9.32
2017-12-31T11:12:01.629Z,9.39
2017-12-31T11:12:46.979Z,9.46
2017-12-31T11:13:47.021Z,9.35
2017-12-31T11:14:47.120Z,9.31
2017-12-31T11:15:46.552Z,9.47
2017-12-31T11:16:46.800Z,9.38
2017-12-31T11:18:01.742Z,9.33
2017-12-31T11:18:47.106Z,9.46
2017-12-31T11:19:47.118Z,9.46
2017-12-31T11:20:47.167Z,9.46
2017-12-31T11:21:47.179Z,9.42
2017-12-31T11:22:47.154Z,9.43
2017-12-31T11:23:47.173Z,9.5
2017-12-31T11:24:46.968Z,9.46
2017-12-31T11:25:46.970Z,9.43
2017-12-31T11:26:46.994Z,9.39
2017-12-31T11:28:01.946Z,9.38
2017-12-31T11:28:47.278Z,9.43
2017-12-31T11:29:47.305Z,9.5
2017-12-31T11:30:46.806Z,9.47
2017-12-31T11:31:47.729Z,9.48
2017-12-31T11:32:47.093Z,9.43
2017-12-31T11:33:47.383Z,9.43
2017-12-31T11:34:47.393Z,9.54
2017-12-31T11:35:47.398Z,9.56
2017-12-31T11:36:47.450Z,9.57
2017-12-31T11:37:47.202Z,9.64
2017-12-31T11:39:47.333Z,9.65
2017-12-31T11:40:47.270Z,9.61
2017-12-31T11:41:47.534Z,9.65
2017-12-31T11:43:02.205Z,9.72
2017-12-31T11:43:47.543Z,9.68
2017-12-31T11:44:47.557Z,9.65
2017-12-31T11:45:47.336Z,9.72
2017-12-31T11:46:47.345Z,9.72
2017-12-31T11:47:47.617Z,9.75
2017-12-31T11:48:47.664Z,9.83
2017-12-31T11:49:47.404Z,9.74
2017-12-31T11:50:47.701Z,9.81
2017-12-31T11:51:47.434Z,9.81
2017-12-31T11:52:47.748Z,9.83
2017-12-31T11:53:47.830Z,9.84
2017-12-31T11:55:02.421Z,9.84
2017-12-31T11:55:47.791Z,9.76
2017-12-31T11:56:47.800Z,9.87
2017-12-31T11:57:47.299Z,9.79
2017-12-31T11:58:47.833Z,9.89
2017-12-31T11:59:47.842Z,9.9
2017-12-31T12:00:47.648Z,9.94
2017-12-31T12:01:47.912Z,9.96
2017-12-31T12:02:47.931Z,9.99
2017-12-31T12:03:47.933Z,9.97
2017-12-31T12:05:48.078Z,10.05
2017-12-31T12:06:47.987Z,10.23
2017-12-31T12:07:48.011Z,10.23
2017-12-31T12:08:48.009Z,10.18
2017-12-31T12:09:48.031Z,10.25
2017-12-31T12:10:48.099Z,10.27
2017-12-31T12:12:02.749Z,10.32
2017-12-31T12:12:48.108Z,10.41
2017-12-31T12:13:47.867Z,10.45
2017-12-31T12:15:02.808Z,10.47
2017-12-31T12:15:48.138Z,10.47
2017-12-31T12:16:48.187Z,10.44
2017-12-31T12:17:48.196Z,10.51
2017-12-31T12:18:48.209Z,10.52
2017-12-31T12:19:48.220Z,10.51
2017-12-31T12:20:47.999Z,10.52
2017-12-31T12:21:48.344Z,10.52
2017-12-31T12:22:48.294Z,10.55
2017-12-31T12:23:48.323Z,10.63
2017-12-31T12:25:02.994Z,10.66
2017-12-31T12:25:48.330Z,10.67
2017-12-31T12:26:48.377Z,10.68
2017-12-31T12:28:03.044Z,10.82
2017-12-31T12:28:48.387Z,10.86
2017-12-31T12:29:48.185Z,10.92
2017-12-31T12:31:03.107Z,11
2017-12-31T12:31:48.445Z,11
2017-12-31T12:32:48.464Z,11.06
2017-12-31T12:33:48.234Z,11.03
2017-12-31T12:34:48.020Z,11.11
2017-12-31T12:35:48.529Z,11.04
2017-12-31T12:36:48.539Z,11.07
2017-12-31T12:37:48.604Z,11.1
2017-12-31T12:38:48.632Z,11.18
2017-12-31T12:39:48.602Z,11.14
2017-12-31T12:40:48.639Z,11.15
2017-12-31T12:41:48.674Z,11.21
2017-12-31T12:42:48.674Z,11.21
2017-12-31T12:43:48.704Z,11.24
2017-12-31T12:44:48.453Z,11.22
2017-12-31T12:47:03.419Z,11.37
2017-12-31T12:47:48.760Z,11.32
2017-12-31T12:48:48.802Z,11.28
2017-12-31T12:49:48.793Z,11.28
2017-12-31T12:51:03.514Z,11.42
2017-12-31T12:51:48.856Z,11.33
2017-12-31T12:52:48.869Z,11.44
2017-12-31T12:53:48.740Z,11.35
2017-12-31T12:54:48.887Z,11.4
2017-12-31T12:55:48.937Z,11.46
2017-12-31T12:56:48.953Z,11.43
2017-12-31T12:57:48.958Z,11.42
2017-12-31T12:58:48.990Z,11.47
2017-12-31T12:59:48.742Z,11.43
2017-12-31T13:01:49.052Z,11.4
2017-12-31T13:03:03.737Z,11.43
2017-12-31T13:03:48.827Z,11.37
2017-12-31T13:04:49.107Z,11.43
2017-12-31T13:05:49.133Z,11.44
2017-12-31T13:06:49.164Z,11.44
2017-12-31T13:07:49.141Z,11.46
2017-12-31T13:09:03.861Z,11.39
2017-12-31T13:09:48.932Z,11.44
2017-12-31T13:10:48.955Z,11.54
2017-12-31T13:12:03.904Z,11.47
2017-12-31T13:13:03.926Z,11.46
2017-12-31T13:14:03.957Z,11.49
2017-12-31T13:14:49.277Z,11.54
2017-12-31T13:15:49.064Z,11.49
2017-12-31T13:16:49.332Z,11.61
2017-12-31T13:18:03.768Z,11.58
2017-12-31T13:18:49.403Z,11.49
2017-12-31T13:19:49.417Z,11.51
2017-12-31T13:20:49.160Z,11.61
2017-12-31T13:21:49.419Z,11.6
2017-12-31T13:22:49.484Z,11.62
2017-12-31T13:23:49.217Z,11.61
2017-12-31T13:24:49.232Z,11.69
2017-12-31T13:25:49.507Z,11.69
2017-12-31T13:26:49.515Z,11.67
2017-12-31T13:28:04.215Z,11.67
2017-12-31T13:28:49.577Z,11.69
2017-12-31T13:30:04.259Z,11.69
2017-12-31T13:30:49.369Z,11.75
2017-12-31T13:31:49.620Z,11.72
2017-12-31T13:32:49.636Z,11.75
2017-12-31T13:33:49.657Z,11.67
2017-12-31T13:34:49.682Z,11.69
2017-12-31T13:35:49.711Z,11.7
2017-12-31T13:36:49.758Z,11.67
2017-12-31T13:37:49.735Z,11.7
2017-12-31T13:38:49.785Z,11.76
2017-12-31T13:39:49.801Z,11.79
2017-12-31T13:40:49.815Z,11.73
2017-12-31T13:41:49.841Z,11.72
2017-12-31T13:42:49.852Z,11.7
2017-12-31T13:43:49.601Z,11.69
2017-12-31T13:44:49.885Z,11.7
2017-12-31T13:45:49.971Z,11.76
2017-12-31T13:46:49.939Z,11.79
2017-12-31T13:47:49.973Z,11.75
2017-12-31T13:48:49.977Z,11.75
2017-12-31T13:50:04.658Z,11.75
2017-12-31T13:50:49.751Z,11.75
2017-12-31T13:51:49.785Z,11.79
2017-12-31T13:52:50.158Z,11.8
2017-12-31T13:53:50.065Z,11.75
2017-12-31T13:54:50.091Z,11.76
2017-12-31T13:55:50.115Z,11.78
2017-12-31T13:57:50.156Z,11.72
2017-12-31T13:58:50.182Z,11.73
2017-12-31T13:59:50.179Z,11.79
2017-12-31T14:00:50.223Z,11.72
2017-12-31T14:01:49.976Z,11.78
2017-12-31T14:02:50.283Z,11.73
2017-12-31T14:03:50.274Z,11.85